sensor_id;sensor_type;location;lat;lon;timestamp;P1;durP1;ratioP1;P2;durP2;ratioP2
25123;SDS011;13104;51.030;4.686;2024-02-04T00:01:40;4.13;;;2.42;;
25123;SDS011;13104;51.030;4.686;2024-02-04T00:04:06;4.90;;;3.33;;
25123;SDS011;13104;51.030;4.686;2024-02-04T00:06:32;4.10;;;2.67;;
25123;SDS011;13104;51.030;4.686;2024-02-04T00:08:59;2.60;;;2.20;;
25123;SDS011;13104;51.030;4.686;2024-02-04T00:11:25;6.00;;;2.72;;
25123;SDS011;13104;51.030;4.686;2024-02-04T00:13:51;8.75;;;2.60;;
25123;SDS011;13104;51.030;4.686;2024-02-04T00:16:17;5.25;;;2.38;;
25123;SDS011;13104;51.030;4.686;2024-02-04T00:18:43;3.13;;;2.10;;
25123;SDS011;13104;51.030;4.686;2024-02-04T00:21:09;3.70;;;2.08;;
25123;SDS011;13104;51.030;4.686;2024-02-04T00:23:35;2.80;;;2.35;;
25123;SDS011;13104;51.030;4.686;2024-02-04T00:26:01;2.67;;;1.73;;
25123;SDS011;13104;51.030;4.686;2024-02-04T00:28:28;5.68;;;2.30;;
25123;SDS011;13104;51.030;4.686;2024-02-04T00:30:54;4.13;;;2.45;;
25123;SDS011;13104;51.030;4.686;2024-02-04T00:33:23;5.88;;;2.45;;
25123;SDS011;13104;51.030;4.686;2024-02-04T00:35:50;4.18;;;2.15;;
25123;SDS011;13104;51.030;4.686;2024-02-04T00:38:16;3.08;;;2.25;;
25123;SDS011;13104;51.030;4.686;2024-02-04T00:40:42;5.47;;;2.08;;
25123;SDS011;13104;51.030;4.686;2024-02-04T00:43:08;5.75;;;2.70;;
25123;SDS011;13104;51.030;4.686;2024-02-04T00:45:34;3.60;;;2.33;;
25123;SDS011;13104;51.030;4.686;2024-02-04T00:48:00;3.53;;;2.22;;
25123;SDS011;13104;51.030;4.686;2024-02-04T00:50:26;7.70;;;3.33;;
25123;SDS011;13104;51.030;4.686;2024-02-04T00:52:52;9.55;;;2.33;;
25123;SDS011;13104;51.030;4.686;2024-02-04T00:55:19;5.18;;;2.60;;
25123;SDS011;13104;51.030;4.686;2024-02-04T00:57:45;3.35;;;2.08;;
25123;SDS011;13104;51.030;4.686;2024-02-04T01:00:11;3.28;;;2.40;;
25123;SDS011;13104;51.030;4.686;2024-02-04T01:02:40;4.43;;;2.55;;
25123;SDS011;13104;51.030;4.686;2024-02-04T01:05:07;4.88;;;2.35;;
25123;SDS011;13104;51.030;4.686;2024-02-04T01:07:33;5.28;;;2.47;;
25123;SDS011;13104;51.030;4.686;2024-02-04T01:09:59;3.80;;;1.92;;
25123;SDS011;13104;51.030;4.686;2024-02-04T01:12:25;5.70;;;2.55;;
25123;SDS011;13104;51.030;4.686;2024-02-04T01:14:52;7.55;;;2.60;;
25123;SDS011;13104;51.030;4.686;2024-02-04T01:17:18;9.48;;;2.65;;
25123;SDS011;13104;51.030;4.686;2024-02-04T01:19:44;9.55;;;2.00;;
25123;SDS011;13104;51.030;4.686;2024-02-04T01:22:10;4.72;;;2.13;;
25123;SDS011;13104;51.030;4.686;2024-02-04T01:24:36;12.30;;;2.35;;
25123;SDS011;13104;51.030;4.686;2024-02-04T01:27:03;2.88;;;2.25;;
25123;SDS011;13104;51.030;4.686;2024-02-04T01:29:29;9.20;;;2.45;;
25123;SDS011;13104;51.030;4.686;2024-02-04T01:31:55;13.52;;;3.15;;
25123;SDS011;13104;51.030;4.686;2024-02-04T01:34:21;5.70;;;3.22;;
25123;SDS011;13104;51.030;4.686;2024-02-04T01:36:47;4.38;;;2.70;;
25123;SDS011;13104;51.030;4.686;2024-02-04T01:39:13;3.10;;;2.42;;
25123;SDS011;13104;51.030;4.686;2024-02-04T01:41:39;3.92;;;2.40;;
25123;SDS011;13104;51.030;4.686;2024-02-04T01:44:05;4.25;;;2.38;;
25123;SDS011;13104;51.030;4.686;2024-02-04T01:46:31;8.55;;;2.30;;
25123;SDS011;13104;51.030;4.686;2024-02-04T01:48:58;5.22;;;2.15;;
25123;SDS011;13104;51.030;4.686;2024-02-04T01:51:24;3.78;;;2.17;;
25123;SDS011;13104;51.030;4.686;2024-02-04T01:53:50;5.32;;;3.30;;
25123;SDS011;13104;51.030;4.686;2024-02-04T01:56:17;8.27;;;2.28;;
25123;SDS011;13104;51.030;4.686;2024-02-04T01:58:43;2.88;;;2.50;;
25123;SDS011;13104;51.030;4.686;2024-02-04T02:01:12;2.58;;;2.05;;
25123;SDS011;13104;51.030;4.686;2024-02-04T02:03:38;4.30;;;2.75;;
25123;SDS011;13104;51.030;4.686;2024-02-04T02:06:05;3.10;;;2.10;;
25123;SDS011;13104;51.030;4.686;2024-02-04T02:08:32;12.55;;;2.53;;
25123;SDS011;13104;51.030;4.686;2024-02-04T02:11:12;6.40;;;2.33;;
25123;SDS011;13104;51.030;4.686;2024-02-04T02:13:42;4.10;;;2.40;;
25123;SDS011;13104;51.030;4.686;2024-02-04T02:16:13;5.97;;;2.63;;
25123;SDS011;13104;51.030;4.686;2024-02-04T02:21:26;8.52;;;3.10;;
25123;SDS011;13104;51.030;4.686;2024-02-04T02:26:20;13.98;;;2.60;;
25123;SDS011;13104;51.030;4.686;2024-02-04T02:28:46;6.70;;;2.90;;
25123;SDS011;13104;51.030;4.686;2024-02-04T02:31:12;6.97;;;3.13;;
25123;SDS011;13104;51.030;4.686;2024-02-04T02:33:38;12.55;;;3.38;;
25123;SDS011;13104;51.030;4.686;2024-02-04T02:36:06;5.03;;;2.85;;
25123;SDS011;13104;51.030;4.686;2024-02-04T02:38:46;5.38;;;3.35;;
25123;SDS011;13104;51.030;4.686;2024-02-04T02:41:15;4.35;;;2.83;;
25123;SDS011;13104;51.030;4.686;2024-02-04T02:43:41;5.05;;;3.42;;
25123;SDS011;13104;51.030;4.686;2024-02-04T02:46:09;6.93;;;2.40;;
25123;SDS011;13104;51.030;4.686;2024-02-04T02:48:35;5.43;;;2.85;;
25123;SDS011;13104;51.030;4.686;2024-02-04T02:51:01;7.57;;;3.55;;
25123;SDS011;13104;51.030;4.686;2024-02-04T02:53:27;9.93;;;3.63;;
25123;SDS011;13104;51.030;4.686;2024-02-04T02:55:53;12.57;;;3.20;;
25123;SDS011;13104;51.030;4.686;2024-02-04T02:58:19;5.20;;;3.00;;
25123;SDS011;13104;51.030;4.686;2024-02-04T03:00:45;10.25;;;3.35;;
25123;SDS011;13104;51.030;4.686;2024-02-04T03:03:11;5.20;;;3.33;;
25123;SDS011;13104;51.030;4.686;2024-02-04T03:05:38;6.43;;;3.13;;
25123;SDS011;13104;51.030;4.686;2024-02-04T03:08:04;6.78;;;3.78;;
25123;SDS011;13104;51.030;4.686;2024-02-04T03:10:30;9.88;;;3.72;;
25123;SDS011;13104;51.030;4.686;2024-02-04T03:12:56;6.35;;;3.50;;
25123;SDS011;13104;51.030;4.686;2024-02-04T03:15:22;8.55;;;2.90;;
25123;SDS011;13104;51.030;4.686;2024-02-04T03:17:48;5.13;;;3.08;;
25123;SDS011;13104;51.030;4.686;2024-02-04T03:20:14;5.00;;;3.35;;
25123;SDS011;13104;51.030;4.686;2024-02-04T03:22:41;7.95;;;3.70;;
25123;SDS011;13104;51.030;4.686;2024-02-04T03:25:07;6.65;;;3.58;;
25123;SDS011;13104;51.030;4.686;2024-02-04T03:27:34;10.45;;;3.58;;
25123;SDS011;13104;51.030;4.686;2024-02-04T03:30:00;7.97;;;3.67;;
25123;SDS011;13104;51.030;4.686;2024-02-04T03:32:26;6.63;;;3.40;;
25123;SDS011;13104;51.030;4.686;2024-02-04T03:34:54;4.43;;;3.15;;
25123;SDS011;13104;51.030;4.686;2024-02-04T03:37:20;8.15;;;2.65;;
25123;SDS011;13104;51.030;4.686;2024-02-04T03:39:46;7.47;;;3.35;;
25123;SDS011;13104;51.030;4.686;2024-02-04T03:42:12;9.80;;;2.65;;
25123;SDS011;13104;51.030;4.686;2024-02-04T03:44:38;19.52;;;2.58;;
25123;SDS011;13104;51.030;4.686;2024-02-04T03:47:04;13.35;;;2.70;;
25123;SDS011;13104;51.030;4.686;2024-02-04T03:49:30;3.83;;;2.53;;
25123;SDS011;13104;51.030;4.686;2024-02-04T03:51:56;4.43;;;2.33;;
25123;SDS011;13104;51.030;4.686;2024-02-04T03:54:22;3.25;;;2.50;;
25123;SDS011;13104;51.030;4.686;2024-02-04T03:56:49;5.47;;;2.75;;
25123;SDS011;13104;51.030;4.686;2024-02-04T03:59:15;7.15;;;2.25;;
25123;SDS011;13104;51.030;4.686;2024-02-04T04:01:46;3.03;;;2.30;;
25123;SDS011;13104;51.030;4.686;2024-02-04T04:04:12;3.97;;;1.90;;
25123;SDS011;13104;51.030;4.686;2024-02-04T04:06:39;7.28;;;3.03;;
25123;SDS011;13104;51.030;4.686;2024-02-04T04:09:05;3.30;;;2.28;;
25123;SDS011;13104;51.030;4.686;2024-02-04T04:11:31;3.55;;;2.40;;
25123;SDS011;13104;51.030;4.686;2024-02-04T04:13:57;14.77;;;2.42;;
25123;SDS011;13104;51.030;4.686;2024-02-04T04:16:23;9.98;;;2.63;;
25123;SDS011;13104;51.030;4.686;2024-02-04T04:18:50;4.85;;;1.77;;
25123;SDS011;13104;51.030;4.686;2024-02-04T04:21:16;2.40;;;1.90;;
25123;SDS011;13104;51.030;4.686;2024-02-04T04:23:42;3.47;;;2.03;;
25123;SDS011;13104;51.030;4.686;2024-02-04T04:26:08;3.70;;;1.85;;
25123;SDS011;13104;51.030;4.686;2024-02-04T04:28:34;2.50;;;1.42;;
25123;SDS011;13104;51.030;4.686;2024-02-04T04:31:00;4.53;;;1.90;;
25123;SDS011;13104;51.030;4.686;2024-02-04T04:33:26;2.00;;;1.73;;
25123;SDS011;13104;51.030;4.686;2024-02-04T04:35:52;4.68;;;1.95;;
25123;SDS011;13104;51.030;4.686;2024-02-04T04:38:18;1.73;;;1.58;;
25123;SDS011;13104;51.030;4.686;2024-02-04T04:40:45;2.40;;;1.67;;
25123;SDS011;13104;51.030;4.686;2024-02-04T04:43:11;2.30;;;1.90;;
25123;SDS011;13104;51.030;4.686;2024-02-04T04:45:37;10.93;;;2.38;;
25123;SDS011;13104;51.030;4.686;2024-02-04T04:48:03;5.93;;;2.05;;
25123;SDS011;13104;51.030;4.686;2024-02-04T04:50:29;2.08;;;1.70;;
25123;SDS011;13104;51.030;4.686;2024-02-04T04:52:55;3.28;;;2.22;;
25123;SDS011;13104;51.030;4.686;2024-02-04T04:55:21;11.48;;;2.25;;
25123;SDS011;13104;51.030;4.686;2024-02-04T04:57:47;2.03;;;1.35;;
25123;SDS011;13104;51.030;4.686;2024-02-04T05:00:14;3.22;;;2.03;;
25123;SDS011;13104;51.030;4.686;2024-02-04T05:02:40;2.50;;;1.98;;
25123;SDS011;13104;51.030;4.686;2024-02-04T05:05:07;6.18;;;2.50;;
25123;SDS011;13104;51.030;4.686;2024-02-04T05:07:34;5.68;;;1.77;;
25123;SDS011;13104;51.030;4.686;2024-02-04T05:10:00;3.08;;;1.95;;
25123;SDS011;13104;51.030;4.686;2024-02-04T05:12:26;2.80;;;1.75;;
25123;SDS011;13104;51.030;4.686;2024-02-04T05:14:52;2.15;;;1.67;;
25123;SDS011;13104;51.030;4.686;2024-02-04T05:17:18;4.95;;;2.70;;
25123;SDS011;13104;51.030;4.686;2024-02-04T05:19:44;3.75;;;2.08;;
25123;SDS011;13104;51.030;4.686;2024-02-04T05:22:10;4.93;;;2.53;;
25123;SDS011;13104;51.030;4.686;2024-02-04T05:24:36;5.65;;;2.20;;
25123;SDS011;13104;51.030;4.686;2024-02-04T05:27:03;7.10;;;1.98;;
25123;SDS011;13104;51.030;4.686;2024-02-04T05:29:30;1.27;;;1.17;;
25123;SDS011;13104;51.030;4.686;2024-02-04T05:31:56;9.48;;;2.20;;
25123;SDS011;13104;51.030;4.686;2024-02-04T05:34:22;2.85;;;1.80;;
25123;SDS011;13104;51.030;4.686;2024-02-04T05:36:48;1.98;;;1.58;;
25123;SDS011;13104;51.030;4.686;2024-02-04T05:39:15;4.53;;;2.65;;
25123;SDS011;13104;51.030;4.686;2024-02-04T05:41:41;12.20;;;1.92;;
25123;SDS011;13104;51.030;4.686;2024-02-04T05:44:07;10.63;;;1.80;;
25123;SDS011;13104;51.030;4.686;2024-02-04T05:46:34;3.90;;;2.33;;
25123;SDS011;13104;51.030;4.686;2024-02-04T05:49:00;4.93;;;2.72;;
25123;SDS011;13104;51.030;4.686;2024-02-04T05:51:27;10.57;;;2.00;;
25123;SDS011;13104;51.030;4.686;2024-02-04T05:53:53;5.93;;;1.52;;
25123;SDS011;13104;51.030;4.686;2024-02-04T05:56:19;3.38;;;2.00;;
25123;SDS011;13104;51.030;4.686;2024-02-04T05:58:46;3.47;;;2.00;;
25123;SDS011;13104;51.030;4.686;2024-02-04T06:01:12;3.85;;;2.30;;
25123;SDS011;13104;51.030;4.686;2024-02-04T06:03:38;3.47;;;2.13;;
25123;SDS011;13104;51.030;4.686;2024-02-04T06:06:04;11.90;;;1.80;;
25123;SDS011;13104;51.030;4.686;2024-02-04T06:08:30;7.32;;;2.85;;
25123;SDS011;13104;51.030;4.686;2024-02-04T06:10:56;7.80;;;2.42;;
25123;SDS011;13104;51.030;4.686;2024-02-04T06:13:22;13.40;;;2.42;;
25123;SDS011;13104;51.030;4.686;2024-02-04T06:15:49;3.03;;;1.83;;
25123;SDS011;13104;51.030;4.686;2024-02-04T06:18:15;2.97;;;1.77;;
25123;SDS011;13104;51.030;4.686;2024-02-04T06:20:41;2.63;;;1.63;;
25123;SDS011;13104;51.030;4.686;2024-02-04T06:23:07;2.28;;;1.80;;
25123;SDS011;13104;51.030;4.686;2024-02-04T06:25:33;6.25;;;2.60;;
25123;SDS011;13104;51.030;4.686;2024-02-04T06:27:59;3.42;;;1.58;;
25123;SDS011;13104;51.030;4.686;2024-02-04T06:30:25;7.13;;;2.58;;
25123;SDS011;13104;51.030;4.686;2024-02-04T06:32:51;3.92;;;2.47;;
25123;SDS011;13104;51.030;4.686;2024-02-04T06:35:18;7.78;;;2.35;;
25123;SDS011;13104;51.030;4.686;2024-02-04T06:37:44;3.10;;;2.25;;
25123;SDS011;13104;51.030;4.686;2024-02-04T06:40:10;12.23;;;2.95;;
25123;SDS011;13104;51.030;4.686;2024-02-04T06:42:36;2.55;;;1.80;;
25123;SDS011;13104;51.030;4.686;2024-02-04T06:45:02;3.97;;;2.03;;
25123;SDS011;13104;51.030;4.686;2024-02-04T06:47:29;5.85;;;2.65;;
25123;SDS011;13104;51.030;4.686;2024-02-04T06:49:55;3.58;;;2.00;;
25123;SDS011;13104;51.030;4.686;2024-02-04T06:52:21;6.43;;;2.28;;
25123;SDS011;13104;51.030;4.686;2024-02-04T06:54:47;2.38;;;1.90;;
25123;SDS011;13104;51.030;4.686;2024-02-04T06:57:13;5.05;;;2.20;;
25123;SDS011;13104;51.030;4.686;2024-02-04T06:59:39;3.78;;;1.73;;
25123;SDS011;13104;51.030;4.686;2024-02-04T07:02:05;3.65;;;1.58;;
25123;SDS011;13104;51.030;4.686;2024-02-04T07:04:31;4.75;;;2.00;;
25123;SDS011;13104;51.030;4.686;2024-02-04T07:06:57;4.47;;;1.98;;
25123;SDS011;13104;51.030;4.686;2024-02-04T07:09:23;17.00;;;3.47;;
25123;SDS011;13104;51.030;4.686;2024-02-04T07:11:49;6.75;;;2.50;;
25123;SDS011;13104;51.030;4.686;2024-02-04T07:14:15;5.50;;;2.20;;
25123;SDS011;13104;51.030;4.686;2024-02-04T07:16:42;5.18;;;2.40;;
25123;SDS011;13104;51.030;4.686;2024-02-04T07:19:08;3.22;;;2.33;;
25123;SDS011;13104;51.030;4.686;2024-02-04T07:21:34;11.55;;;1.85;;
25123;SDS011;13104;51.030;4.686;2024-02-04T07:24:00;19.15;;;2.22;;
25123;SDS011;13104;51.030;4.686;2024-02-04T07:26:26;2.70;;;1.98;;
25123;SDS011;13104;51.030;4.686;2024-02-04T07:28:53;3.47;;;2.13;;
25123;SDS011;13104;51.030;4.686;2024-02-04T07:31:19;5.03;;;2.17;;
25123;SDS011;13104;51.030;4.686;2024-02-04T07:33:45;3.45;;;2.22;;
25123;SDS011;13104;51.030;4.686;2024-02-04T07:36:11;5.60;;;2.33;;
25123;SDS011;13104;51.030;4.686;2024-02-04T07:38:37;3.63;;;2.13;;
25123;SDS011;13104;51.030;4.686;2024-02-04T07:41:04;1.80;;;1.58;;
25123;SDS011;13104;51.030;4.686;2024-02-04T07:43:30;7.18;;;2.22;;
25123;SDS011;13104;51.030;4.686;2024-02-04T07:45:56;3.20;;;2.15;;
25123;SDS011;13104;51.030;4.686;2024-02-04T07:48:22;5.63;;;2.70;;
25123;SDS011;13104;51.030;4.686;2024-02-04T07:50:48;3.92;;;2.35;;
25123;SDS011;13104;51.030;4.686;2024-02-04T07:53:14;4.93;;;2.10;;
25123;SDS011;13104;51.030;4.686;2024-02-04T07:55:40;2.80;;;1.67;;
25123;SDS011;13104;51.030;4.686;2024-02-04T07:58:06;4.15;;;2.17;;
25123;SDS011;13104;51.030;4.686;2024-02-04T08:00:32;11.38;;;2.45;;
25123;SDS011;13104;51.030;4.686;2024-02-04T08:02:58;6.35;;;3.03;;
25123;SDS011;13104;51.030;4.686;2024-02-04T08:05:24;5.22;;;2.30;;
25123;SDS011;13104;51.030;4.686;2024-02-04T08:07:51;4.72;;;2.67;;
25123;SDS011;13104;51.030;4.686;2024-02-04T08:10:17;2.63;;;1.92;;
25123;SDS011;13104;51.030;4.686;2024-02-04T08:12:43;4.50;;;2.28;;
25123;SDS011;13104;51.030;4.686;2024-02-04T08:15:09;2.72;;;1.80;;
25123;SDS011;13104;51.030;4.686;2024-02-04T08:17:35;5.40;;;2.25;;
25123;SDS011;13104;51.030;4.686;2024-02-04T08:20:01;9.52;;;1.63;;
25123;SDS011;13104;51.030;4.686;2024-02-04T08:22:29;2.97;;;2.10;;
25123;SDS011;13104;51.030;4.686;2024-02-04T08:24:55;6.53;;;2.58;;
25123;SDS011;13104;51.030;4.686;2024-02-04T08:27:21;5.60;;;2.78;;
25123;SDS011;13104;51.030;4.686;2024-02-04T08:29:47;4.72;;;2.58;;
25123;SDS011;13104;51.030;4.686;2024-02-04T08:32:13;3.92;;;2.72;;
25123;SDS011;13104;51.030;4.686;2024-02-04T08:34:39;6.13;;;2.97;;
25123;SDS011;13104;51.030;4.686;2024-02-04T08:37:06;10.90;;;3.05;;
25123;SDS011;13104;51.030;4.686;2024-02-04T08:39:32;10.25;;;2.10;;
25123;SDS011;13104;51.030;4.686;2024-02-04T08:41:58;5.63;;;2.25;;
25123;SDS011;13104;51.030;4.686;2024-02-04T08:44:24;4.63;;;2.30;;
25123;SDS011;13104;51.030;4.686;2024-02-04T08:46:50;4.45;;;2.13;;
25123;SDS011;13104;51.030;4.686;2024-02-04T08:49:16;2.60;;;2.10;;
25123;SDS011;13104;51.030;4.686;2024-02-04T08:51:42;3.55;;;2.17;;
25123;SDS011;13104;51.030;4.686;2024-02-04T08:54:08;2.85;;;1.60;;
25123;SDS011;13104;51.030;4.686;2024-02-04T08:56:34;3.20;;;1.70;;
25123;SDS011;13104;51.030;4.686;2024-02-04T08:59:00;3.55;;;1.40;;
25123;SDS011;13104;51.030;4.686;2024-02-04T09:01:27;7.25;;;1.13;;
25123;SDS011;13104;51.030;4.686;2024-02-04T09:03:53;3.67;;;1.88;;
25123;SDS011;13104;51.030;4.686;2024-02-04T09:06:19;7.32;;;1.67;;
25123;SDS011;13104;51.030;4.686;2024-02-04T09:08:46;2.13;;;1.42;;
25123;SDS011;13104;51.030;4.686;2024-02-04T09:11:12;2.28;;;1.63;;
25123;SDS011;13104;51.030;4.686;2024-02-04T09:13:43;3.70;;;1.85;;
25123;SDS011;13104;51.030;4.686;2024-02-04T09:16:09;2.40;;;1.40;;
25123;SDS011;13104;51.030;4.686;2024-02-04T09:18:36;8.65;;;1.42;;
25123;SDS011;13104;51.030;4.686;2024-02-04T09:21:02;8.32;;;2.17;;
25123;SDS011;13104;51.030;4.686;2024-02-04T09:23:28;1.83;;;1.48;;
25123;SDS011;13104;51.030;4.686;2024-02-04T09:25:54;9.57;;;1.98;;
25123;SDS011;13104;51.030;4.686;2024-02-04T09:28:20;3.30;;;1.55;;
25123;SDS011;13104;51.030;4.686;2024-02-04T09:30:47;1.98;;;0.90;;
25123;SDS011;13104;51.030;4.686;2024-02-04T09:33:13;2.90;;;1.65;;
25123;SDS011;13104;51.030;4.686;2024-02-04T09:35:39;3.80;;;1.42;;
25123;SDS011;13104;51.030;4.686;2024-02-04T09:38:06;2.45;;;1.75;;
25123;SDS011;13104;51.030;4.686;2024-02-04T09:40:32;10.32;;;1.48;;
25123;SDS011;13104;51.030;4.686;2024-02-04T09:42:58;3.33;;;1.88;;
25123;SDS011;13104;51.030;4.686;2024-02-04T09:45:24;1.60;;;1.23;;
25123;SDS011;13104;51.030;4.686;2024-02-04T09:47:52;2.20;;;1.38;;
25123;SDS011;13104;51.030;4.686;2024-02-04T09:50:20;1.00;;;0.93;;
25123;SDS011;13104;51.030;4.686;2024-02-04T09:52:50;1.73;;;1.10;;
25123;SDS011;13104;51.030;4.686;2024-02-04T09:55:16;2.33;;;1.40;;
25123;SDS011;13104;51.030;4.686;2024-02-04T09:57:43;1.48;;;1.05;;
25123;SDS011;13104;51.030;4.686;2024-02-04T10:00:10;1.40;;;1.30;;
25123;SDS011;13104;51.030;4.686;2024-02-04T10:02:37;3.83;;;1.30;;
25123;SDS011;13104;51.030;4.686;2024-02-04T10:05:04;2.58;;;1.48;;
25123;SDS011;13104;51.030;4.686;2024-02-04T10:07:30;5.07;;;0.98;;
25123;SDS011;13104;51.030;4.686;2024-02-04T10:09:56;1.65;;;1.17;;
25123;SDS011;13104;51.030;4.686;2024-02-04T10:12:22;1.08;;;0.98;;
25123;SDS011;13104;51.030;4.686;2024-02-04T10:14:49;6.80;;;1.63;;
25123;SDS011;13104;51.030;4.686;2024-02-04T10:17:15;4.75;;;1.48;;
25123;SDS011;13104;51.030;4.686;2024-02-04T10:19:41;1.73;;;1.08;;
25123;SDS011;13104;51.030;4.686;2024-02-04T10:22:07;0.65;;;0.63;;
25123;SDS011;13104;51.030;4.686;2024-02-04T10:24:33;2.13;;;1.23;;
25123;SDS011;13104;51.030;4.686;2024-02-04T10:27:00;1.48;;;1.38;;
25123;SDS011;13104;51.030;4.686;2024-02-04T10:29:26;4.28;;;1.73;;
25123;SDS011;13104;51.030;4.686;2024-02-04T10:31:55;2.30;;;0.90;;
25123;SDS011;13104;51.030;4.686;2024-02-04T10:34:26;1.58;;;0.90;;
25123;SDS011;13104;51.030;4.686;2024-02-04T10:36:58;3.30;;;1.20;;
25123;SDS011;13104;51.030;4.686;2024-02-04T10:39:24;2.25;;;1.15;;
25123;SDS011;13104;51.030;4.686;2024-02-04T10:41:50;1.23;;;0.88;;
25123;SDS011;13104;51.030;4.686;2024-02-04T10:44:18;1.25;;;0.90;;
25123;SDS011;13104;51.030;4.686;2024-02-04T10:46:46;1.77;;;1.13;;
25123;SDS011;13104;51.030;4.686;2024-02-04T10:49:17;0.93;;;0.77;;
25123;SDS011;13104;51.030;4.686;2024-02-04T10:51:44;1.25;;;1.05;;
25123;SDS011;13104;51.030;4.686;2024-02-04T10:54:19;0.70;;;0.70;;
25123;SDS011;13104;51.030;4.686;2024-02-04T10:56:52;1.30;;;1.20;;
25123;SDS011;13104;51.030;4.686;2024-02-04T10:59:22;1.23;;;0.82;;
25123;SDS011;13104;51.030;4.686;2024-02-04T11:01:48;1.52;;;0.98;;
25123;SDS011;13104;51.030;4.686;2024-02-04T11:04:14;1.92;;;1.13;;
25123;SDS011;13104;51.030;4.686;2024-02-04T11:06:42;1.33;;;1.10;;
25123;SDS011;13104;51.030;4.686;2024-02-04T11:09:08;1.35;;;1.25;;
25123;SDS011;13104;51.030;4.686;2024-02-04T11:11:38;1.15;;;1.00;;
25123;SDS011;13104;51.030;4.686;2024-02-04T11:14:05;0.80;;;0.75;;
25123;SDS011;13104;51.030;4.686;2024-02-04T11:24:41;0.98;;;0.90;;
25123;SDS011;13104;51.030;4.686;2024-02-04T11:27:10;1.10;;;1.00;;
25123;SDS011;13104;51.030;4.686;2024-02-04T11:29:37;1.90;;;1.27;;
25123;SDS011;13104;51.030;4.686;2024-02-04T11:32:03;1.85;;;1.38;;
25123;SDS011;13104;51.030;4.686;2024-02-04T11:34:29;1.38;;;0.98;;
25123;SDS011;13104;51.030;4.686;2024-02-04T11:36:55;4.97;;;1.23;;
25123;SDS011;13104;51.030;4.686;2024-02-04T11:39:23;1.52;;;1.20;;
25123;SDS011;13104;51.030;4.686;2024-02-04T11:41:50;2.40;;;1.05;;
25123;SDS011;13104;51.030;4.686;2024-02-04T11:44:20;0.98;;;0.98;;
25123;SDS011;13104;51.030;4.686;2024-02-04T11:46:47;2.80;;;1.33;;
25123;SDS011;13104;51.030;4.686;2024-02-04T11:49:19;2.97;;;1.13;;
25123;SDS011;13104;51.030;4.686;2024-02-04T11:51:53;1.23;;;1.13;;
25123;SDS011;13104;51.030;4.686;2024-02-04T11:54:20;2.00;;;1.27;;
25123;SDS011;13104;51.030;4.686;2024-02-04T11:56:53;0.98;;;0.80;;
25123;SDS011;13104;51.030;4.686;2024-02-04T11:59:20;1.42;;;1.30;;
25123;SDS011;13104;51.030;4.686;2024-02-04T12:01:47;1.02;;;0.98;;
25123;SDS011;13104;51.030;4.686;2024-02-04T12:04:13;1.63;;;1.13;;
25123;SDS011;13104;51.030;4.686;2024-02-04T12:06:40;2.83;;;0.90;;
25123;SDS011;13104;51.030;4.686;2024-02-04T12:09:07;0.60;;;0.60;;
25123;SDS011;13104;51.030;4.686;2024-02-04T12:11:37;1.60;;;1.17;;
25123;SDS011;13104;51.030;4.686;2024-02-04T12:14:04;0.80;;;0.80;;
25123;SDS011;13104;51.030;4.686;2024-02-04T12:16:30;1.80;;;0.95;;
25123;SDS011;13104;51.030;4.686;2024-02-04T12:18:57;1.23;;;1.00;;
25123;SDS011;13104;51.030;4.686;2024-02-04T12:21:24;2.50;;;1.45;;
25123;SDS011;13104;51.030;4.686;2024-02-04T12:23:51;2.28;;;1.25;;
25123;SDS011;13104;51.030;4.686;2024-02-04T12:26:17;1.10;;;1.00;;
25123;SDS011;13104;51.030;4.686;2024-02-04T12:28:43;1.35;;;0.90;;
25123;SDS011;13104;51.030;4.686;2024-02-04T12:31:19;0.60;;;0.60;;
25123;SDS011;13104;51.030;4.686;2024-02-04T12:33:52;1.00;;;0.90;;
25123;SDS011;13104;51.030;4.686;2024-02-04T12:36:20;0.70;;;0.70;;
25123;SDS011;13104;51.030;4.686;2024-02-04T12:38:55;2.55;;;1.60;;
25123;SDS011;13104;51.030;4.686;2024-02-04T12:41:22;3.42;;;1.50;;
25123;SDS011;13104;51.030;4.686;2024-02-04T12:43:58;3.70;;;1.40;;
25123;SDS011;13104;51.030;4.686;2024-02-04T12:46:25;11.60;;;2.25;;
25123;SDS011;13104;51.030;4.686;2024-02-04T12:48:55;1.45;;;1.15;;
25123;SDS011;13104;51.030;4.686;2024-02-04T12:54:01;1.00;;;0.90;;
25123;SDS011;13104;51.030;4.686;2024-02-04T12:56:38;3.55;;;0.70;;
25123;SDS011;13104;51.030;4.686;2024-02-04T12:59:04;0.68;;;0.68;;
25123;SDS011;13104;51.030;4.686;2024-02-04T13:01:31;1.83;;;1.00;;
25123;SDS011;13104;51.030;4.686;2024-02-04T13:03:57;1.75;;;0.95;;
25123;SDS011;13104;51.030;4.686;2024-02-04T13:06:23;1.15;;;1.05;;
25123;SDS011;13104;51.030;4.686;2024-02-04T13:08:51;1.83;;;1.02;;
25123;SDS011;13104;51.030;4.686;2024-02-04T13:11:22;2.40;;;0.90;;
25123;SDS011;13104;51.030;4.686;2024-02-04T13:13:48;2.28;;;1.48;;
25123;SDS011;13104;51.030;4.686;2024-02-04T13:16:14;0.73;;;0.73;;
25123;SDS011;13104;51.030;4.686;2024-02-04T13:18:42;2.75;;;1.63;;
25123;SDS011;13104;51.030;4.686;2024-02-04T13:21:08;3.58;;;1.40;;
25123;SDS011;13104;51.030;4.686;2024-02-04T13:23:34;5.20;;;2.15;;
25123;SDS011;13104;51.030;4.686;2024-02-04T13:26:00;3.63;;;1.02;;
25123;SDS011;13104;51.030;4.686;2024-02-04T13:28:26;2.00;;;1.08;;
25123;SDS011;13104;51.030;4.686;2024-02-04T13:30:52;3.80;;;1.30;;
25123;SDS011;13104;51.030;4.686;2024-02-04T13:33:18;6.15;;;1.77;;
25123;SDS011;13104;51.030;4.686;2024-02-04T13:35:44;1.98;;;1.20;;
25123;SDS011;13104;51.030;4.686;2024-02-04T13:38:11;0.68;;;0.63;;
25123;SDS011;13104;51.030;4.686;2024-02-04T13:40:37;2.47;;;1.02;;
25123;SDS011;13104;51.030;4.686;2024-02-04T13:43:03;1.75;;;0.98;;
25123;SDS011;13104;51.030;4.686;2024-02-04T13:45:29;1.30;;;0.93;;
25123;SDS011;13104;51.030;4.686;2024-02-04T13:47:55;6.22;;;0.90;;
25123;SDS011;13104;51.030;4.686;2024-02-04T13:50:21;0.57;;;0.57;;
25123;SDS011;13104;51.030;4.686;2024-02-04T13:52:47;0.73;;;0.70;;
25123;SDS011;13104;51.030;4.686;2024-02-04T13:55:14;0.85;;;0.63;;
25123;SDS011;13104;51.030;4.686;2024-02-04T13:57:40;3.92;;;0.88;;
25123;SDS011;13104;51.030;4.686;2024-02-04T14:00:06;1.35;;;0.60;;
25123;SDS011;13104;51.030;4.686;2024-02-04T14:02:33;1.00;;;0.88;;
25123;SDS011;13104;51.030;4.686;2024-02-04T14:04:59;0.70;;;0.70;;
25123;SDS011;13104;51.030;4.686;2024-02-04T14:07:26;0.82;;;0.82;;
25123;SDS011;13104;51.030;4.686;2024-02-04T14:09:52;0.80;;;0.60;;
25123;SDS011;13104;51.030;4.686;2024-02-04T14:12:18;4.70;;;1.02;;
25123;SDS011;13104;51.030;4.686;2024-02-04T14:14:44;1.33;;;1.23;;
25123;SDS011;13104;51.030;4.686;2024-02-04T14:17:11;9.57;;;1.73;;
25123;SDS011;13104;51.030;4.686;2024-02-04T14:19:37;4.28;;;1.20;;
25123;SDS011;13104;51.030;4.686;2024-02-04T14:22:03;1.58;;;1.00;;
25123;SDS011;13104;51.030;4.686;2024-02-04T14:24:29;5.28;;;1.73;;
25123;SDS011;13104;51.030;4.686;2024-02-04T14:26:56;6.35;;;2.40;;
25123;SDS011;13104;51.030;4.686;2024-02-04T14:29:23;10.70;;;1.30;;
25123;SDS011;13104;51.030;4.686;2024-02-04T14:31:50;1.73;;;0.82;;
25123;SDS011;13104;51.030;4.686;2024-02-04T14:34:16;2.72;;;1.23;;
25123;SDS011;13104;51.030;4.686;2024-02-04T14:36:42;1.02;;;0.95;;
25123;SDS011;13104;51.030;4.686;2024-02-04T14:39:08;3.20;;;1.10;;
25123;SDS011;13104;51.030;4.686;2024-02-04T14:41:35;0.50;;;0.50;;
25123;SDS011;13104;51.030;4.686;2024-02-04T14:44:01;0.60;;;0.60;;
25123;SDS011;13104;51.030;4.686;2024-02-04T14:46:28;0.65;;;0.65;;
25123;SDS011;13104;51.030;4.686;2024-02-04T14:48:54;1.27;;;0.90;;
25123;SDS011;13104;51.030;4.686;2024-02-04T14:51:20;1.23;;;0.70;;
25123;SDS011;13104;51.030;4.686;2024-02-04T14:53:46;1.05;;;0.85;;
25123;SDS011;13104;51.030;4.686;2024-02-04T14:56:12;0.80;;;0.80;;
25123;SDS011;13104;51.030;4.686;2024-02-04T14:58:39;4.63;;;1.35;;